sensor_id;sensor_type;location;lat;lon;timestamp;temperature;humidity
11838;DHT22;5978;51.020;6.764;2022-09-09T00:02:21;17.70;99.90
11838;DHT22;5978;51.020;6.764;2022-09-09T00:05:17;17.70;99.90
11838;DHT22;5978;51.020;6.764;2022-09-09T00:07:49;17.70;99.90
11838;DHT22;5978;51.020;6.764;2022-09-09T00:10:28;17.70;99.90
11838;DHT22;5978;51.020;6.764;2022-09-09T00:13:16;17.70;99.90
11838;DHT22;5978;51.020;6.764;2022-09-09T00:21:11;17.70;99.90
11838;DHT22;5978;51.020;6.764;2022-09-09T00:23:39;17.80;99.90
11838;DHT22;5978;51.020;6.764;2022-09-09T00:28:59;17.90;99.90
11838;DHT22;5978;51.020;6.764;2022-09-09T00:31:30;17.90;99.90
11838;DHT22;5978;51.020;6.764;2022-09-09T00:34:19;17.90;99.90
11838;DHT22;5978;51.020;6.764;2022-09-09T00:36:49;17.90;99.90
11838;DHT22;5978;51.020;6.764;2022-09-09T00:42:26;18.00;99.90
11838;DHT22;5978;51.020;6.764;2022-09-09T00:47:46;17.70;99.90
11838;DHT22;5978;51.020;6.764;2022-09-09T00:50:35;17.60;99.90
11838;DHT22;5978;51.020;6.764;2022-09-09T00:56:13;17.50;99.90
11838;DHT22;5978;51.020;6.764;2022-09-09T00:58:43;17.30;99.90
11838;DHT22;5978;51.020;6.764;2022-09-09T01:01:16;17.30;99.90
11838;DHT22;5978;51.020;6.764;2022-09-09T01:03:52;17.20;99.90
11838;DHT22;5978;51.020;6.764;2022-09-09T01:06:30;17.20;99.90
11838;DHT22;5978;51.020;6.764;2022-09-09T01:14:39;17.30;99.90
11838;DHT22;5978;51.020;6.764;2022-09-09T01:17:24;17.30;99.90
11838;DHT22;5978;51.020;6.764;2022-09-09T01:23:25;17.20;99.90
11838;DHT22;5978;51.020;6.764;2022-09-09T01:28:50;17.20;99.90
11838;DHT22;5978;51.020;6.764;2022-09-09T01:31:34;17.20;99.90
11838;DHT22;5978;51.020;6.764;2022-09-09T01:34:02;17.20;99.90
11838;DHT22;5978;51.020;6.764;2022-09-09T01:36:37;17.10;99.90
11838;DHT22;5978;51.020;6.764;2022-09-09T01:39:06;17.10;99.90
11838;DHT22;5978;51.020;6.764;2022-09-09T01:41:31;17.10;99.90
11838;DHT22;5978;51.020;6.764;2022-09-09T01:43:57;17.10;99.90
11838;DHT22;5978;51.020;6.764;2022-09-09T01:46:23;17.00;99.90
11838;DHT22;5978;51.020;6.764;2022-09-09T01:48:53;17.00;99.90
11838;DHT22;5978;51.020;6.764;2022-09-09T01:51:19;17.00;99.90
11838;DHT22;5978;51.020;6.764;2022-09-09T01:53:45;17.00;99.90
11838;DHT22;5978;51.020;6.764;2022-09-09T01:56:23;17.10;99.90
11838;DHT22;5978;51.020;6.764;2022-09-09T02:06:52;17.20;99.90
11838;DHT22;5978;51.020;6.764;2022-09-09T02:09:22;17.30;99.90
11838;DHT22;5978;51.020;6.764;2022-09-09T02:11:52;17.20;99.90
11838;DHT22;5978;51.020;6.764;2022-09-09T02:14:25;17.10;99.90
11838;DHT22;5978;51.020;6.764;2022-09-09T02:16:59;17.10;99.90
11838;DHT22;5978;51.020;6.764;2022-09-09T02:19:46;17.00;99.90
11838;DHT22;5978;51.020;6.764;2022-09-09T02:22:16;17.00;99.90
11838;DHT22;5978;51.020;6.764;2022-09-09T02:24:44;17.00;99.90
11838;DHT22;5978;51.020;6.764;2022-09-09T02:27:12;16.90;99.90
11838;DHT22;5978;51.020;6.764;2022-09-09T02:29:41;16.90;99.90
11838;DHT22;5978;51.020;6.764;2022-09-09T02:32:22;16.90;99.90
11838;DHT22;5978;51.020;6.764;2022-09-09T02:35:01;16.90;99.90
11838;DHT22;5978;51.020;6.764;2022-09-09T02:37:37;16.80;99.90
11838;DHT22;5978;51.020;6.764;2022-09-09T02:40:05;16.90;99.90
11838;DHT22;5978;51.020;6.764;2022-09-09T02:42:31;16.80;99.90
11838;DHT22;5978;51.020;6.764;2022-09-09T02:44:57;16.80;99.90
11838;DHT22;5978;51.020;6.764;2022-09-09T02:47:34;16.70;99.90
11838;DHT22;5978;51.020;6.764;2022-09-09T02:53:07;16.90;99.90
11838;DHT22;5978;51.020;6.764;2022-09-09T02:55:52;16.90;99.90
11838;DHT22;5978;51.020;6.764;2022-09-09T02:58:20;17.00;99.90
11838;DHT22;5978;51.020;6.764;2022-09-09T03:00:48;17.00;99.90
11838;DHT22;5978;51.020;6.764;2022-09-09T03:03:14;17.00;99.90
11838;DHT22;5978;51.020;6.764;2022-09-09T03:05:41;17.00;99.90
11838;DHT22;5978;51.020;6.764;2022-09-09T03:08:07;17.00;99.90
11838;DHT22;5978;51.020;6.764;2022-09-09T03:10:33;16.90;99.90
11838;DHT22;5978;51.020;6.764;2022-09-09T03:13:00;16.80;99.90
11838;DHT22;5978;51.020;6.764;2022-09-09T03:15:26;16.80;99.90
11838;DHT22;5978;51.020;6.764;2022-09-09T03:17:57;16.80;99.90
11838;DHT22;5978;51.020;6.764;2022-09-09T03:20:24;16.80;99.90
11838;DHT22;5978;51.020;6.764;2022-09-09T03:22:51;16.80;99.90
11838;DHT22;5978;51.020;6.764;2022-09-09T03:25:17;16.80;99.90
11838;DHT22;5978;51.020;6.764;2022-09-09T03:27:43;16.80;99.90
11838;DHT22;5978;51.020;6.764;2022-09-09T03:30:09;16.80;99.90
11838;DHT22;5978;51.020;6.764;2022-09-09T03:32:35;16.80;99.90
11838;DHT22;5978;51.020;6.764;2022-09-09T03:35:00;16.90;99.90
11838;DHT22;5978;51.020;6.764;2022-09-09T03:37:26;16.90;99.90
11838;DHT22;5978;51.020;6.764;2022-09-09T03:39:51;16.90;99.90
11838;DHT22;5978;51.020;6.764;2022-09-09T03:42:19;17.00;99.90
11838;DHT22;5978;51.020;6.764;2022-09-09T03:44:48;16.90;99.90
11838;DHT22;5978;51.020;6.764;2022-09-09T03:47:19;17.00;99.90
11838;DHT22;5978;51.020;6.764;2022-09-09T03:49:47;17.10;99.90
11838;DHT22;5978;51.020;6.764;2022-09-09T03:52:14;17.10;99.90
11838;DHT22;5978;51.020;6.764;2022-09-09T03:54:40;17.10;99.90
11838;DHT22;5978;51.020;6.764;2022-09-09T03:57:08;17.10;99.90
11838;DHT22;5978;51.020;6.764;2022-09-09T03:59:35;17.20;99.90
11838;DHT22;5978;51.020;6.764;2022-09-09T04:02:01;17.10;99.90
11838;DHT22;5978;51.020;6.764;2022-09-09T04:04:27;17.10;99.90
11838;DHT22;5978;51.020;6.764;2022-09-09T04:06:53;17.00;99.90
11838;DHT22;5978;51.020;6.764;2022-09-09T04:09:19;17.00;99.90
11838;DHT22;5978;51.020;6.764;2022-09-09T04:11:45;17.00;99.90
11838;DHT22;5978;51.020;6.764;2022-09-09T04:14:11;17.00;99.90
11838;DHT22;5978;51.020;6.764;2022-09-09T04:16:38;17.00;99.90
11838;DHT22;5978;51.020;6.764;2022-09-09T04:19:04;17.00;99.90
11838;DHT22;5978;51.020;6.764;2022-09-09T04:21:30;17.10;99.90
11838;DHT22;5978;51.020;6.764;2022-09-09T04:23:56;17.10;99.90
11838;DHT22;5978;51.020;6.764;2022-09-09T04:26:22;17.20;99.90
11838;DHT22;5978;51.020;6.764;2022-09-09T04:28:47;17.20;99.90
11838;DHT22;5978;51.020;6.764;2022-09-09T04:31:19;17.20;99.90
11838;DHT22;5978;51.020;6.764;2022-09-09T04:33:46;17.20;99.90
11838;DHT22;5978;51.020;6.764;2022-09-09T04:36:12;17.30;99.90
11838;DHT22;5978;51.020;6.764;2022-09-09T04:38:38;17.30;99.90
11838;DHT22;5978;51.020;6.764;2022-09-09T04:41:04;17.30;99.90
11838;DHT22;5978;51.020;6.764;2022-09-09T04:43:30;17.20;99.90
11838;DHT22;5978;51.020;6.764;2022-09-09T04:45:56;17.20;99.90
11838;DHT22;5978;51.020;6.764;2022-09-09T04:48:22;17.20;99.90
11838;DHT22;5978;51.020;6.764;2022-09-09T04:51:20;17.30;99.90
11838;DHT22;5978;51.020;6.764;2022-09-09T04:53:45;17.20;99.90
11838;DHT22;5978;51.020;6.764;2022-09-09T04:56:15;17.20;99.90
11838;DHT22;5978;51.020;6.764;2022-09-09T04:58:42;17.20;99.90
11838;DHT22;5978;51.020;6.764;2022-09-09T05:01:16;17.20;99.90
11838;DHT22;5978;51.020;6.764;2022-09-09T05:03:43;17.30;99.90
11838;DHT22;5978;51.020;6.764;2022-09-09T05:06:13;17.30;99.90
11838;DHT22;5978;51.020;6.764;2022-09-09T05:08:40;17.30;99.90
11838;DHT22;5978;51.020;6.764;2022-09-09T05:11:23;17.20;99.90
11838;DHT22;5978;51.020;6.764;2022-09-09T05:13:50;17.30;99.90
11838;DHT22;5978;51.020;6.764;2022-09-09T05:16:16;17.30;99.90
11838;DHT22;5978;51.020;6.764;2022-09-09T05:18:42;17.30;99.90
11838;DHT22;5978;51.020;6.764;2022-09-09T05:21:09;17.30;99.90
11838;DHT22;5978;51.020;6.764;2022-09-09T05:23:35;17.30;99.90
11838;DHT22;5978;51.020;6.764;2022-09-09T05:26:02;17.40;99.90
11838;DHT22;5978;51.020;6.764;2022-09-09T05:28:28;17.40;99.90
11838;DHT22;5978;51.020;6.764;2022-09-09T05:31:05;17.40;99.90
11838;DHT22;5978;51.020;6.764;2022-09-09T05:33:34;17.40;99.90
11838;DHT22;5978;51.020;6.764;2022-09-09T05:36:05;17.50;99.90
11838;DHT22;5978;51.020;6.764;2022-09-09T05:38:32;17.60;99.90
11838;DHT22;5978;51.020;6.764;2022-09-09T05:41:01;17.60;99.90
11838;DHT22;5978;51.020;6.764;2022-09-09T05:43:28;17.60;99.90
11838;DHT22;5978;51.020;6.764;2022-09-09T05:46:12;17.60;99.90
11838;DHT22;5978;51.020;6.764;2022-09-09T05:48:40;17.50;99.90
11838;DHT22;5978;51.020;6.764;2022-09-09T05:51:09;17.50;99.90
11838;DHT22;5978;51.020;6.764;2022-09-09T05:53:36;17.50;99.90
11838;DHT22;5978;51.020;6.764;2022-09-09T05:56:04;17.60;99.90
11838;DHT22;5978;51.020;6.764;2022-09-09T05:58:31;17.50;99.90
11838;DHT22;5978;51.020;6.764;2022-09-09T06:01:08;17.50;99.90
11838;DHT22;5978;51.020;6.764;2022-09-09T06:03:35;17.50;99.90
11838;DHT22;5978;51.020;6.764;2022-09-09T06:06:03;17.50;99.90
11838;DHT22;5978;51.020;6.764;2022-09-09T06:08:33;17.50;99.90
11838;DHT22;5978;51.020;6.764;2022-09-09T06:11:08;17.60;99.90
11838;DHT22;5978;51.020;6.764;2022-09-09T06:13:34;17.60;99.90
11838;DHT22;5978;51.020;6.764;2022-09-09T06:16:00;17.60;99.90
11838;DHT22;5978;51.020;6.764;2022-09-09T06:18:27;17.60;99.90
11838;DHT22;5978;51.020;6.764;2022-09-09T06:21:04;17.70;99.90
11838;DHT22;5978;51.020;6.764;2022-09-09T06:23:30;17.70;99.90
11838;DHT22;5978;51.020;6.764;2022-09-09T06:26:08;17.70;99.90
11838;DHT22;5978;51.020;6.764;2022-09-09T06:28:35;17.70;99.90
11838;DHT22;5978;51.020;6.764;2022-09-09T06:31:04;17.60;99.90
11838;DHT22;5978;51.020;6.764;2022-09-09T06:33:35;17.70;99.90
11838;DHT22;5978;51.020;6.764;2022-09-09T06:36:02;17.80;99.90
11838;DHT22;5978;51.020;6.764;2022-09-09T06:38:29;17.90;99.90
11838;DHT22;5978;51.020;6.764;2022-09-09T06:40:55;17.90;99.90
11838;DHT22;5978;51.020;6.764;2022-09-09T06:43:22;18.00;99.90
11838;DHT22;5978;51.020;6.764;2022-09-09T06:45:55;18.20;99.90
11838;DHT22;5978;51.020;6.764;2022-09-09T06:48:21;18.40;99.90
11838;DHT22;5978;51.020;6.764;2022-09-09T06:50:47;18.50;99.90
11838;DHT22;5978;51.020;6.764;2022-09-09T06:53:16;18.70;99.90
11838;DHT22;5978;51.020;6.764;2022-09-09T06:55:45;18.90;99.90
11838;DHT22;5978;51.020;6.764;2022-09-09T06:58:11;19.00;99.90
11838;DHT22;5978;51.020;6.764;2022-09-09T07:00:36;19.10;99.90
11838;DHT22;5978;51.020;6.764;2022-09-09T07:03:04;19.20;99.90
11838;DHT22;5978;51.020;6.764;2022-09-09T07:05:31;19.30;99.90
11838;DHT22;5978;51.020;6.764;2022-09-09T07:07:57;19.40;99.90
11838;DHT22;5978;51.020;6.764;2022-09-09T07:10:23;19.40;99.90
11838;DHT22;5978;51.020;6.764;2022-09-09T07:12:52;19.20;99.90
11838;DHT22;5978;51.020;6.764;2022-09-09T07:15:18;19.00;99.90
11838;DHT22;5978;51.020;6.764;2022-09-09T07:17:45;19.00;99.90
11838;DHT22;5978;51.020;6.764;2022-09-09T07:20:11;19.10;99.90
11838;DHT22;5978;51.020;6.764;2022-09-09T07:22:37;19.30;99.90
11838;DHT22;5978;51.020;6.764;2022-09-09T07:25:03;19.50;99.90
11838;DHT22;5978;51.020;6.764;2022-09-09T07:27:29;19.80;99.90
11838;DHT22;5978;51.020;6.764;2022-09-09T07:29:55;20.00;99.90
11838;DHT22;5978;51.020;6.764;2022-09-09T07:32:21;20.20;99.90
11838;DHT22;5978;51.020;6.764;2022-09-09T07:34:46;20.20;99.90
11838;DHT22;5978;51.020;6.764;2022-09-09T07:37:12;20.10;99.90
11838;DHT22;5978;51.020;6.764;2022-09-09T07:39:39;20.10;99.90
11838;DHT22;5978;51.020;6.764;2022-09-09T07:42:05;19.80;99.90
11838;DHT22;5978;51.020;6.764;2022-09-09T07:44:30;19.70;99.90
11838;DHT22;5978;51.020;6.764;2022-09-09T07:47:00;19.70;99.90
11838;DHT22;5978;51.020;6.764;2022-09-09T07:49:26;19.60;99.90
11838;DHT22;5978;51.020;6.764;2022-09-09T07:51:51;19.60;99.90
11838;DHT22;5978;51.020;6.764;2022-09-09T07:54:18;19.70;99.90
11838;DHT22;5978;51.020;6.764;2022-09-09T07:56:46;19.60;99.90
11838;DHT22;5978;51.020;6.764;2022-09-09T07:59:12;19.70;99.90
11838;DHT22;5978;51.020;6.764;2022-09-09T08:01:44;19.70;99.90
11838;DHT22;5978;51.020;6.764;2022-09-09T08:04:13;19.60;99.90
11838;DHT22;5978;51.020;6.764;2022-09-09T08:06:46;19.70;99.90
11838;DHT22;5978;51.020;6.764;2022-09-09T08:09:13;19.90;99.90
11838;DHT22;5978;51.020;6.764;2022-09-09T08:11:39;20.10;99.90
11838;DHT22;5978;51.020;6.764;2022-09-09T08:14:06;20.20;99.90
11838;DHT22;5978;51.020;6.764;2022-09-09T08:16:38;20.20;99.90
11838;DHT22;5978;51.020;6.764;2022-09-09T08:19:05;20.30;99.90
11838;DHT22;5978;51.020;6.764;2022-09-09T08:21:33;20.40;99.90
11838;DHT22;5978;51.020;6.764;2022-09-09T08:24:00;20.60;99.90
11838;DHT22;5978;51.020;6.764;2022-09-09T08:26:29;20.60;99.90
11838;DHT22;5978;51.020;6.764;2022-09-09T08:28:57;20.80;99.90
11838;DHT22;5978;51.020;6.764;2022-09-09T08:31:27;20.90;99.90
11838;DHT22;5978;51.020;6.764;2022-09-09T08:33:57;20.90;99.90
11838;DHT22;5978;51.020;6.764;2022-09-09T08:36:26;21.10;99.90
11838;DHT22;5978;51.020;6.764;2022-09-09T08:38:53;21.00;99.90
11838;DHT22;5978;51.020;6.764;2022-09-09T08:42:13;20.80;99.90
11838;DHT22;5978;51.020;6.764;2022-09-09T08:55:54;20.90;99.90
11838;DHT22;5978;51.020;6.764;2022-09-09T08:58:33;20.80;99.90
11838;DHT22;5978;51.020;6.764;2022-09-09T09:11:17;20.90;99.90
11838;DHT22;5978;51.020;6.764;2022-09-09T09:13:56;21.00;99.90
11838;DHT22;5978;51.020;6.764;2022-09-09T09:16:34;20.90;99.90
11838;DHT22;5978;51.020;6.764;2022-09-09T09:19:03;20.80;99.90
11838;DHT22;5978;51.020;6.764;2022-09-09T09:24:00;20.90;99.90
11838;DHT22;5978;51.020;6.764;2022-09-09T09:26:31;20.80;99.90
11838;DHT22;5978;51.020;6.764;2022-09-09T09:28:59;20.90;99.90
11838;DHT22;5978;51.020;6.764;2022-09-09T09:31:26;20.80;99.90
11838;DHT22;5978;51.020;6.764;2022-09-09T09:33:54;20.80;99.90
11838;DHT22;5978;51.020;6.764;2022-09-09T09:36:24;20.80;99.90
11838;DHT22;5978;51.020;6.764;2022-09-09T09:38:54;20.90;99.90
11838;DHT22;5978;51.020;6.764;2022-09-09T09:41:36;20.90;99.90
11838;DHT22;5978;51.020;6.764;2022-09-09T09:44:03;21.00;99.90
11838;DHT22;5978;51.020;6.764;2022-09-09T09:46:30;20.90;99.90
11838;DHT22;5978;51.020;6.764;2022-09-09T09:49:03;21.00;99.90
11838;DHT22;5978;51.020;6.764;2022-09-09T09:51:32;21.10;99.90
11838;DHT22;5978;51.020;6.764;2022-09-09T09:56:41;21.20;99.90
11838;DHT22;5978;51.020;6.764;2022-09-09T09:59:31;21.30;99.90
11838;DHT22;5978;51.020;6.764;2022-09-09T10:02:16;21.50;99.90
11838;DHT22;5978;51.020;6.764;2022-09-09T10:04:42;21.30;99.90
11838;DHT22;5978;51.020;6.764;2022-09-09T10:09:38;21.70;99.90
11838;DHT22;5978;51.020;6.764;2022-09-09T10:17:54;22.30;99.90
11838;DHT22;5978;51.020;6.764;2022-09-09T10:23:14;22.50;99.90
11838;DHT22;5978;51.020;6.764;2022-09-09T10:26:16;22.70;99.90
11838;DHT22;5978;51.020;6.764;2022-09-09T10:29:32;22.70;99.90
11838;DHT22;5978;51.020;6.764;2022-09-09T10:35:21;23.00;99.90
11838;DHT22;5978;51.020;6.764;2022-09-09T10:46:06;22.20;99.90
11838;DHT22;5978;51.020;6.764;2022-09-09T10:54:02;22.70;99.90
11838;DHT22;5978;51.020;6.764;2022-09-09T10:56:29;23.10;99.90
11838;DHT22;5978;51.020;6.764;2022-09-09T10:59:14;23.50;99.90
11838;DHT22;5978;51.020;6.764;2022-09-09T11:04:17;22.80;99.90
11838;DHT22;5978;51.020;6.764;2022-09-09T11:06:48;22.50;99.90
11838;DHT22;5978;51.020;6.764;2022-09-09T11:09:21;22.10;99.90
11838;DHT22;5978;51.020;6.764;2022-09-09T11:11:55;21.80;99.90
11838;DHT22;5978;51.020;6.764;2022-09-09T11:14:37;21.80;99.90
11838;DHT22;5978;51.020;6.764;2022-09-09T11:18:08;21.50;99.90
11838;DHT22;5978;51.020;6.764;2022-09-09T11:20:14;21.40;99.90
11838;DHT22;5978;51.020;6.764;2022-09-09T11:22:51;21.50;99.90
11838;DHT22;5978;51.020;6.764;2022-09-09T11:25:23;21.70;99.90
11838;DHT22;5978;51.020;6.764;2022-09-09T11:39:14;21.70;99.90
11838;DHT22;5978;51.020;6.764;2022-09-09T11:41:45;21.60;99.90
11838;DHT22;5978;51.020;6.764;2022-09-09T11:44:13;21.60;99.90
11838;DHT22;5978;51.020;6.764;2022-09-09T11:46:49;21.60;99.90
11838;DHT22;5978;51.020;6.764;2022-09-09T11:52:25;21.30;99.90
11838;DHT22;5978;51.020;6.764;2022-09-09T11:54:54;21.10;99.90
11838;DHT22;5978;51.020;6.764;2022-09-09T11:57:30;21.10;99.90
11838;DHT22;5978;51.020;6.764;2022-09-09T11:59:57;21.10;99.90
11838;DHT22;5978;51.020;6.764;2022-09-09T12:02:26;21.00;99.90
11838;DHT22;5978;51.020;6.764;2022-09-09T12:05:10;20.80;99.90
11838;DHT22;5978;51.020;6.764;2022-09-09T12:07:55;20.90;99.90
11838;DHT22;5978;51.020;6.764;2022-09-09T12:10:26;20.90;99.90
11838;DHT22;5978;51.020;6.764;2022-09-09T12:12:52;20.90;99.90
11838;DHT22;5978;51.020;6.764;2022-09-09T12:15:21;20.90;99.90
11838;DHT22;5978;51.020;6.764;2022-09-09T12:17:50;21.10;99.90
11838;DHT22;5978;51.020;6.764;2022-09-09T12:20:36;21.30;99.90
11838;DHT22;5978;51.020;6.764;2022-09-09T12:29:01;22.10;99.90
11838;DHT22;5978;51.020;6.764;2022-09-09T12:31:35;22.40;99.90
11838;DHT22;5978;51.020;6.764;2022-09-09T12:34:17;22.00;99.90
11838;DHT22;5978;51.020;6.764;2022-09-09T12:36:47;21.90;99.90
11838;DHT22;5978;51.020;6.764;2022-09-09T12:39:27;21.50;99.90
11838;DHT22;5978;51.020;6.764;2022-09-09T12:41:55;20.60;99.90
11838;DHT22;5978;51.020;6.764;2022-09-09T12:44:25;19.60;99.90
11838;DHT22;5978;51.020;6.764;2022-09-09T12:46:53;19.00;99.90
11838;DHT22;5978;51.020;6.764;2022-09-09T12:49:36;18.90;99.90
11838;DHT22;5978;51.020;6.764;2022-09-09T12:52:17;19.50;99.90
11838;DHT22;5978;51.020;6.764;2022-09-09T12:54:46;20.20;99.90
11838;DHT22;5978;51.020;6.764;2022-09-09T12:57:13;20.80;99.90
11838;DHT22;5978;51.020;6.764;2022-09-09T12:59:42;21.80;99.90
11838;DHT22;5978;51.020;6.764;2022-09-09T13:02:26;23.20;99.90
11838;DHT22;5978;51.020;6.764;2022-09-09T13:04:53;24.30;99.90
11838;DHT22;5978;51.020;6.764;2022-09-09T13:07:20;25.10;99.90
11838;DHT22;5978;51.020;6.764;2022-09-09T13:09:49;25.50;99.90
11838;DHT22;5978;51.020;6.764;2022-09-09T13:12:21;25.60;99.90
11838;DHT22;5978;51.020;6.764;2022-09-09T13:14:50;25.40;99.90
11838;DHT22;5978;51.020;6.764;2022-09-09T13:17:21;24.80;99.90
11838;DHT22;5978;51.020;6.764;2022-09-09T13:19:48;24.70;99.90
11838;DHT22;5978;51.020;6.764;2022-09-09T13:22:22;24.30;99.90
11838;DHT22;5978;51.020;6.764;2022-09-09T13:25:00;24.20;99.90
11838;DHT22;5978;51.020;6.764;2022-09-09T13:27:33;25.40;99.90
11838;DHT22;5978;51.020;6.764;2022-09-09T13:30:00;27.90;99.90
11838;DHT22;5978;51.020;6.764;2022-09-09T13:32:27;28.20;99.90
11838;DHT22;5978;51.020;6.764;2022-09-09T13:35:01;27.30;99.90
11838;DHT22;5978;51.020;6.764;2022-09-09T13:37:37;26.30;99.90
11838;DHT22;5978;51.020;6.764;2022-09-09T13:40:05;27.00;99.90
11838;DHT22;5978;51.020;6.764;2022-09-09T13:42:33;26.80;99.90
11838;DHT22;5978;51.020;6.764;2022-09-09T13:45:00;26.30;99.90
11838;DHT22;5978;51.020;6.764;2022-09-09T13:47:34;25.70;99.90
11838;DHT22;5978;51.020;6.764;2022-09-09T13:52:46;24.60;99.90
11838;DHT22;5978;51.020;6.764;2022-09-09T13:55:12;24.30;99.90
11838;DHT22;5978;51.020;6.764;2022-09-09T13:57:38;24.30;99.90
11838;DHT22;5978;51.020;6.764;2022-09-09T14:00:05;24.50;99.90
11838;DHT22;5978;51.020;6.764;2022-09-09T14:02:32;24.80;99.90
11838;DHT22;5978;51.020;6.764;2022-09-09T14:04:58;24.70;99.90
11838;DHT22;5978;51.020;6.764;2022-09-09T14:07:24;24.60;99.90
11838;DHT22;5978;51.020;6.764;2022-09-09T14:09:50;24.30;99.90
11838;DHT22;5978;51.020;6.764;2022-09-09T14:12:17;24.00;99.90
11838;DHT22;5978;51.020;6.764;2022-09-09T14:14:43;23.90;99.90
11838;DHT22;5978;51.020;6.764;2022-09-09T14:17:09;23.60;99.90
11838;DHT22;5978;51.020;6.764;2022-09-09T14:19:35;23.20;99.90
11838;DHT22;5978;51.020;6.764;2022-09-09T14:22:00;23.00;99.90
11838;DHT22;5978;51.020;6.764;2022-09-09T14:24:27;22.70;99.90
11838;DHT22;5978;51.020;6.764;2022-09-09T14:26:53;22.50;99.90
11838;DHT22;5978;51.020;6.764;2022-09-09T14:29:19;22.20;99.90
11838;DHT22;5978;51.020;6.764;2022-09-09T14:31:45;21.80;99.90
11838;DHT22;5978;51.020;6.764;2022-09-09T14:34:11;21.50;99.90
11838;DHT22;5978;51.020;6.764;2022-09-09T14:36:37;21.50;99.90
11838;DHT22;5978;51.020;6.764;2022-09-09T14:39:03;21.50;99.90
11838;DHT22;5978;51.020;6.764;2022-09-09T14:41:30;22.30;99.90
11838;DHT22;5978;51.020;6.764;2022-09-09T14:43:55;23.00;99.90
11838;DHT22;5978;51.020;6.764;2022-09-09T14:46:21;23.30;99.90
11838;DHT22;5978;51.020;6.764;2022-09-09T14:48:47;22.90;99.90
11838;DHT22;5978;51.020;6.764;2022-09-09T14:51:18;22.30;99.90
11838;DHT22;5978;51.020;6.764;2022-09-09T14:53:45;22.10;99.90
11838;DHT22;5978;51.020;6.764;2022-09-09T14:56:17;21.80;99.90
11838;DHT22;5978;51.020;6.764;2022-09-09T14:58:43;21.50;99.90
11838;DHT22;5978;51.020;6.764;2022-09-09T15:01:16;21.50;99.90
11838;DHT22;5978;51.020;6.764;2022-09-09T15:03:49;21.40;99.90
11838;DHT22;5978;51.020;6.764;2022-09-09T15:06:15;21.30;99.90
11838;DHT22;5978;51.020;6.764;2022-09-09T15:08:42;21.40;99.90
11838;DHT22;5978;51.020;6.764;2022-09-09T15:11:10;22.80;99.90
11838;DHT22;5978;51.020;6.764;2022-09-09T15:13:36;22.90;99.90
11838;DHT22;5978;51.020;6.764;2022-09-09T15:16:14;22.60;99.90
11838;DHT22;5978;51.020;6.764;2022-09-09T15:18:40;22.30;99.90
11838;DHT22;5978;51.020;6.764;2022-09-09T15:21:18;21.90;99.90
11838;DHT22;5978;51.020;6.764;2022-09-09T15:23:45;21.70;99.90
11838;DHT22;5978;51.020;6.764;2022-09-09T15:26:11;21.30;99.90
11838;DHT22;5978;51.020;6.764;2022-09-09T15:28:38;21.30;99.90
11838;DHT22;5978;51.020;6.764;2022-09-09T15:31:10;21.20;99.90
11838;DHT22;5978;51.020;6.764;2022-09-09T15:33:36;21.30;99.90
11838;DHT22;5978;51.020;6.764;2022-09-09T15:36:18;21.30;99.90
11838;DHT22;5978;51.020;6.764;2022-09-09T15:38:44;21.40;99.90
11838;DHT22;5978;51.020;6.764;2022-09-09T15:41:11;21.40;99.90
11838;DHT22;5978;51.020;6.764;2022-09-09T15:43:38;21.90;99.90
11838;DHT22;5978;51.020;6.764;2022-09-09T15:48:50;21.60;99.90
11838;DHT22;5978;51.020;6.764;2022-09-09T15:51:16;21.70;99.90
11838;DHT22;5978;51.020;6.764;2022-09-09T15:53:42;22.10;99.90
11838;DHT22;5978;51.020;6.764;2022-09-09T15:56:08;22.50;99.90
11838;DHT22;5978;51.020;6.764;2022-09-09T15:58:35;22.00;99.90
11838;DHT22;5978;51.020;6.764;2022-09-09T16:01:08;21.80;99.90
11838;DHT22;5978;51.020;6.764;2022-09-09T16:03:35;21.40;99.90
11838;DHT22;5978;51.020;6.764;2022-09-09T16:06:01;21.30;99.90
11838;DHT22;5978;51.020;6.764;2022-09-09T16:11:10;20.80;99.90
11838;DHT22;5978;51.020;6.764;2022-09-09T16:13:38;20.40;99.90
11838;DHT22;5978;51.020;6.764;2022-09-09T16:16:05;20.30;99.90
11838;DHT22;5978;51.020;6.764;2022-09-09T16:21:01;20.20;99.90
11838;DHT22;5978;51.020;6.764;2022-09-09T16:23:26;20.10;99.90
11838;DHT22;5978;51.020;6.764;2022-09-09T16:25:56;19.90;99.90
11838;DHT22;5978;51.020;6.764;2022-09-09T16:28:22;19.90;99.90
11838;DHT22;5978;51.020;6.764;2022-09-09T16:30:48;19.90;99.90
11838;DHT22;5978;51.020;6.764;2022-09-09T16:33:13;19.90;99.90
11838;DHT22;5978;51.020;6.764;2022-09-09T16:35:42;19.80;99.90
11838;DHT22;5978;51.020;6.764;2022-09-09T16:38:08;19.80;99.90
11838;DHT22;5978;51.020;6.764;2022-09-09T16:40:34;19.80;99.90
11838;DHT22;5978;51.020;6.764;2022-09-09T16:43:00;19.70;99.90
11838;DHT22;5978;51.020;6.764;2022-09-09T16:45:26;19.70;99.90
11838;DHT22;5978;51.020;6.764;2022-09-09T16:47:53;19.70;99.90
11838;DHT22;5978;51.020;6.764;2022-09-09T16:50:19;19.80;99.90
11838;DHT22;5978;51.020;6.764;2022-09-09T16:52:45;19.80;99.90
11838;DHT22;5978;51.020;6.764;2022-09-09T16:55:10;19.80;99.90
11838;DHT22;5978;51.020;6.764;2022-09-09T16:57:36;19.80;99.90
11838;DHT22;5978;51.020;6.764;2022-09-09T17:00:02;19.70;99.90
11838;DHT22;5978;51.020;6.764;2022-09-09T17:02:30;19.60;99.90
11838;DHT22;5978;51.020;6.764;2022-09-09T17:04:56;19.60;99.90
11838;DHT22;5978;51.020;6.764;2022-09-09T17:07:21;19.80;99.90
11838;DHT22;5978;51.020;6.764;2022-09-09T17:09:48;19.80;99.90
11838;DHT22;5978;51.020;6.764;2022-09-09T17:12:14;19.80;99.90
11838;DHT22;5978;51.020;6.764;2022-09-09T17:14:39;19.60;99.90
11838;DHT22;5978;51.020;6.764;2022-09-09T17:17:05;19.60;99.90
11838;DHT22;5978;51.020;6.764;2022-09-09T17:19:31;19.60;99.90
11838;DHT22;5978;51.020;6.764;2022-09-09T17:21:56;19.60;99.90
11838;DHT22;5978;51.020;6.764;2022-09-09T17:24:24;19.50;99.90
11838;DHT22;5978;51.020;6.764;2022-09-09T17:26:51;19.40;99.90
11838;DHT22;5978;51.020;6.764;2022-09-09T17:29:17;19.40;99.90
11838;DHT22;5978;51.020;6.764;2022-09-09T17:31:43;19.50;99.90
11838;DHT22;5978;51.020;6.764;2022-09-09T17:34:09;19.30;99.90
11838;DHT22;5978;51.020;6.764;2022-09-09T17:36:35;19.30;99.90
11838;DHT22;5978;51.020;6.764;2022-09-09T17:39:03;19.40;99.90
11838;DHT22;5978;51.020;6.764;2022-09-09T17:41:37;19.20;99.90
11838;DHT22;5978;51.020;6.764;2022-09-09T17:44:05;19.10;99.90
11838;DHT22;5978;51.020;6.764;2022-09-09T17:46:36;19.10;99.90
11838;DHT22;5978;51.020;6.764;2022-09-09T17:49:07;19.00;99.90
11838;DHT22;5978;51.020;6.764;2022-09-09T17:51:35;18.90;99.90
11838;DHT22;5978;51.020;6.764;2022-09-09T17:54:06;18.80;99.90
11838;DHT22;5978;51.020;6.764;2022-09-09T17:56:35;18.80;99.90
11838;DHT22;5978;51.020;6.764;2022-09-09T17:59:03;18.70;99.90
11838;DHT22;5978;51.020;6.764;2022-09-09T18:01:31;18.60;99.90
11838;DHT22;5978;51.020;6.764;2022-09-09T18:04:02;18.60;99.90
11838;DHT22;5978;51.020;6.764;2022-09-09T18:06:33;18.70;99.90
11838;DHT22;5978;51.020;6.764;2022-09-09T18:09:02;18.60;99.90
11838;DHT22;5978;51.020;6.764;2022-09-09T18:11:31;18.60;99.90